createdAt,value
2022-08-26T00:00:15.071Z,97800.02
2022-08-26T00:03:02.889Z,97798.63
2022-08-26T00:05:30.880Z,97796.08
2022-08-26T00:07:58.870Z,97797.11
2022-08-26T00:10:26.974Z,97794.23
2022-08-26T00:12:55.090Z,97795.08
2022-08-26T00:15:24.341Z,97792.13
2022-08-26T00:17:53.429Z,97793.29
2022-08-26T00:20:25.613Z,97792.76
2022-08-26T00:22:55.689Z,97793.94
2022-08-26T00:25:24.787Z,97795.16
2022-08-26T00:27:53.301Z,97795.11
2022-08-26T00:30:26.808Z,97793.97
2022-08-26T00:32:56.389Z,97794.27
2022-08-26T00:35:26.244Z,97798.16
2022-08-26T00:37:57.254Z,97797.21
2022-08-26T00:40:35.597Z,97794.20
2022-08-26T00:43:06.975Z,97795.86
2022-08-26T00:46:02.296Z,97792.67
2022-08-26T00:48:36.008Z,97788.13
2022-08-26T00:51:11.660Z,97789.53
2022-08-26T00:53:45.789Z,97785.69
2022-08-26T00:56:38.321Z,97786.29
2022-08-26T00:59:09.034Z,97790.90
2022-08-26T01:01:38.191Z,97789.27
2022-08-26T01:04:07.008Z,97794.14
2022-08-26T01:06:34.989Z,97792.59
2022-08-26T01:09:03.564Z,97790.24
2022-08-26T01:11:32.896Z,97790.85
2022-08-26T01:14:05.131Z,97791.66
2022-08-26T01:16:36.466Z,97791.23
2022-08-26T01:19:18.920Z,97791.63
2022-08-26T01:22:14.193Z,97790.02
2022-08-26T01:24:42.862Z,97787.11
2022-08-26T01:27:15.665Z,97788.51
2022-08-26T01:29:49.370Z,97788.30
2022-08-26T01:32:23.247Z,97792.08
2022-08-26T01:34:52.966Z,97791.77
2022-08-26T01:37:27.798Z,97791.24
2022-08-26T01:39:56.858Z,97787.15
2022-08-26T01:42:27.581Z,97787.63
2022-08-26T01:45:03.741Z,97789.15
2022-08-26T01:47:35.725Z,97789.41
2022-08-26T01:50:09.605Z,97788.67
2022-08-26T01:52:41.865Z,97786.25
2022-08-26T01:55:15.747Z,97789.41
2022-08-26T01:58:05.560Z,97789.41
2022-08-26T02:00:35.677Z,97792.91
2022-08-26T02:03:19.167Z,97787.63
2022-08-26T02:06:09.277Z,97786.41
2022-08-26T02:08:45.003Z,97783.30
2022-08-26T02:11:14.448Z,97780.44
2022-08-26T02:13:52.426Z,97776.42
2022-08-26T02:16:27.329Z,97778.65
2022-08-26T02:18:58.407Z,97777.57
2022-08-26T02:21:26.726Z,97775.96
2022-08-26T02:23:56.392Z,97772.01
2022-08-26T02:26:28.389Z,97770.06
2022-08-26T02:29:04.133Z,97766.96
2022-08-26T02:31:32.461Z,97768.30
2022-08-26T02:34:15.699Z,97760.23
2022-08-26T02:36:44.201Z,97758.42
2022-08-26T02:39:15.019Z,97759.27
2022-08-26T02:41:45.750Z,97757.59
2022-08-26T02:44:14.054Z,97757.43
2022-08-26T02:46:44.514Z,97759.02
2022-08-26T02:49:16.988Z,97758.90
2022-08-26T02:51:46.843Z,97757.42
2022-08-26T02:54:15.511Z,97754.59
2022-08-26T02:56:44.013Z,97756.38
2022-08-26T02:59:15.536Z,97758.02
2022-08-26T03:01:45.445Z,97758.87
2022-08-26T03:04:13.934Z,97757.27
2022-08-26T03:06:43.472Z,97759.33
2022-08-26T03:09:20.784Z,97757.08
2022-08-26T03:11:48.697Z,97760.75
2022-08-26T03:14:17.258Z,97760.11
2022-08-26T03:16:48.441Z,97762.02
2022-08-26T03:19:17.679Z,97767.21
2022-08-26T03:21:47.337Z,97766.58
2022-08-26T03:24:17.762Z,97765.26
2022-08-26T03:26:52.641Z,97768.56
2022-08-26T03:29:41.424Z,97765.16
2022-08-26T03:32:09.684Z,97761.39
2022-08-26T03:34:38.858Z,97760.31
2022-08-26T03:37:07.039Z,97754.02
2022-08-26T03:39:35.596Z,97758.39
2022-08-26T03:42:03.986Z,97759.64
2022-08-26T03:44:42.094Z,97761.34
2022-08-26T03:47:10.659Z,97757.83
2022-08-26T03:49:39.060Z,97760.88
2022-08-26T03:52:07.457Z,97755.34
2022-08-26T03:54:35.926Z,97756.98
2022-08-26T03:57:04.329Z,97755.73
2022-08-26T03:59:33.371Z,97755.94
2022-08-26T04:02:01.680Z,97751.80
2022-08-26T04:04:30.746Z,97749.02
2022-08-26T04:06:59.927Z,97748.91
2022-08-26T04:09:28.174Z,97748.72
2022-08-26T04:11:58.873Z,97740.95
2022-08-26T04:14:28.542Z,97745.85
2022-08-26T04:16:57.075Z,97745.06
2022-08-26T04:19:27.446Z,97748.59
2022-08-26T04:21:55.700Z,97746.52
2022-08-26T04:24:26.886Z,97753.64
2022-08-26T04:26:56.821Z,97752.21
2022-08-26T04:29:27.366Z,97753.71
2022-08-26T04:31:56.647Z,97749.84
2022-08-26T04:34:28.750Z,97748.09
2022-08-26T04:36:58.933Z,97748.77
2022-08-26T04:39:28.525Z,97749.72
2022-08-26T04:41:57.905Z,97749.09
2022-08-26T04:44:29.593Z,97747.14
2022-08-26T04:46:58.973Z,97746.92
2022-08-26T04:49:28.006Z,97745.64
2022-08-26T04:52:05.508Z,97741.58
2022-08-26T04:55:00.995Z,97738.11
2022-08-26T04:57:29.185Z,97741.14
2022-08-26T04:59:58.221Z,97739.07
2022-08-26T05:02:26.420Z,97739.68
2022-08-26T05:04:55.179Z,97735.59
2022-08-26T05:07:23.651Z,97731.77
2022-08-26T05:09:54.010Z,97732.48
2022-08-26T05:12:23.598Z,97730.77
2022-08-26T05:14:52.837Z,97735.18
2022-08-26T05:17:21.382Z,97730.73
2022-08-26T05:19:51.006Z,97734.14
2022-08-26T05:22:20.620Z,97734.80
2022-08-26T05:24:49.931Z,97735.03
2022-08-26T05:27:18.108Z,97737.13
2022-08-26T05:29:46.314Z,97738.14
2022-08-26T05:32:59.926Z,97739.75
2022-08-26T05:35:34.607Z,97738.08
2022-08-26T05:38:05.906Z,97734.10
2022-08-26T05:40:44.687Z,97731.42
2022-08-26T05:43:13.689Z,97733.67
2022-08-26T05:45:46.072Z,97732.22
2022-08-26T05:48:17.096Z,97730.52
2022-08-26T05:50:51.263Z,97726.92
2022-08-26T05:53:21.472Z,97729.16
2022-08-26T05:55:51.936Z,97732.61
2022-08-26T05:58:21.814Z,97730.38
2022-08-26T06:01:02.260Z,97725.02
2022-08-26T06:03:32.445Z,97722.86
2022-08-26T06:06:05.103Z,97723.54
2022-08-26T06:08:36.351Z,97722.47
2022-08-26T06:11:18.644Z,97723.21
2022-08-26T06:14:03.074Z,97724.17
2022-08-26T06:16:44.446Z,97724.35
2022-08-26T06:19:19.379Z,97722.92
2022-08-26T06:21:55.082Z,97725.66
2022-08-26T06:24:48.167Z,97723.26
2022-08-26T06:27:30.597Z,97721.70
2022-08-26T06:30:10.035Z,97718.90
2022-08-26T06:32:45.828Z,97722.16
2022-08-26T06:35:21.921Z,97727.57
2022-08-26T06:37:57.556Z,97729.25
2022-08-26T06:40:33.389Z,97727.73
2022-08-26T06:43:09.371Z,97725.79
2022-08-26T06:45:47.833Z,97729.20
2022-08-26T06:48:24.965Z,97737.34
2022-08-26T06:51:24.189Z,97736.60
2022-08-26T06:54:00.206Z,97735.59
2022-08-26T06:56:41.998Z,97738.10
2022-08-26T06:59:18.497Z,97738.95
2022-08-26T07:01:54.982Z,97739.26
2022-08-26T07:04:30.121Z,97739.65
2022-08-26T07:07:06.649Z,97735.04
2022-08-26T07:09:43.524Z,97737.83
2022-08-26T07:12:17.730Z,97741.52
2022-08-26T07:14:52.047Z,97739.07
2022-08-26T07:17:21.990Z,97742.88
2022-08-26T07:19:58.610Z,97735.88
2022-08-26T07:22:27.424Z,97744.41
2022-08-26T07:24:55.301Z,97744.83
2022-08-26T07:27:30.862Z,97744.91
2022-08-26T07:29:58.893Z,97744.41
2022-08-26T07:32:27.217Z,97742.73
2022-08-26T07:34:55.159Z,97744.43
2022-08-26T07:37:23.313Z,97745.89
2022-08-26T07:39:51.588Z,97745.61
2022-08-26T07:42:20.898Z,97745.79
2022-08-26T07:44:49.560Z,97743.92
2022-08-26T07:47:25.287Z,97741.80
2022-08-26T07:49:57.699Z,97740.69
2022-08-26T07:52:37.658Z,97739.92
2022-08-26T07:55:15.231Z,97738.71
2022-08-26T07:57:49.209Z,97742.59
2022-08-26T08:00:17.426Z,97741.17
2022-08-26T08:02:45.545Z,97738.77
2022-08-26T08:05:17.768Z,97738.92
2022-08-26T08:07:46.652Z,97743.89
2022-08-26T08:10:18.787Z,97747.50
2022-08-26T08:12:50.396Z,97741.52
2022-08-26T08:15:21.247Z,97743.12
2022-08-26T08:17:50.558Z,97736.66
2022-08-26T08:20:22.478Z,97737.27
2022-08-26T08:22:52.631Z,97735.21
2022-08-26T08:25:22.588Z,97733.86
2022-08-26T08:27:56.022Z,97732.11
2022-08-26T08:30:35.015Z,97728.77
2022-08-26T08:33:03.486Z,97727.49
2022-08-26T08:35:40.411Z,97729.92
2022-08-26T08:38:17.423Z,97729.36
2022-08-26T08:40:46.119Z,97722.67
2022-08-26T08:43:37.542Z,97724.70
2022-08-26T08:46:17.640Z,97727.62
2022-08-26T08:48:51.503Z,97724.11
2022-08-26T08:51:27.625Z,97722.47
2022-08-26T08:53:56.938Z,97720.70
2022-08-26T08:56:41.763Z,97720.80
2022-08-26T08:59:20.585Z,97718.75
2022-08-26T09:01:54.130Z,97718.23
2022-08-26T09:05:03.067Z,97718.18
2022-08-26T09:07:47.080Z,97717.13
2022-08-26T09:10:33.955Z,97713.87
2022-08-26T09:13:25.308Z,97712.86
2022-08-26T09:15:55.199Z,97713.97
2022-08-26T09:18:35.545Z,97712.58
2022-08-26T09:21:09.484Z,97706.39
2022-08-26T09:23:42.787Z,97702.42
2022-08-26T09:26:30.663Z,97699.35
2022-08-26T09:29:03.397Z,97698.90
2022-08-26T09:31:35.937Z,97697.11
2022-08-26T09:34:23.160Z,97691.88
2022-08-26T09:36:56.637Z,97690.73
2022-08-26T09:39:31.583Z,97689.88
2022-08-26T09:42:10.373Z,97688.79
2022-08-26T09:45:06.610Z,97689.30
2022-08-26T09:47:38.414Z,97686.20
2022-08-26T09:50:34.358Z,97684.46
2022-08-26T09:53:09.942Z,97688.15
2022-08-26T09:55:43.908Z,97684.39
2022-08-26T09:58:32.573Z,97682.05
2022-08-26T10:01:04.400Z,97685.40
2022-08-26T10:03:36.180Z,97683.41
2022-08-26T10:06:07.659Z,97679.33
2022-08-26T10:08:42.448Z,97678.04
2022-08-26T10:11:35.486Z,97676.58
2022-08-26T10:14:11.196Z,97678.30
2022-08-26T10:16:58.399Z,97676.52
2022-08-26T10:19:56.135Z,97673.67
2022-08-26T10:22:52.691Z,97665.92
2022-08-26T10:25:27.703Z,97665.49
2022-08-26T10:28:51.171Z,97659.23
2022-08-26T10:31:40.164Z,97658.27
2022-08-26T10:34:12.354Z,97660.43
2022-08-26T10:37:13.922Z,97653.98
2022-08-26T10:40:07.752Z,97655.15
2022-08-26T10:42:54.547Z,97656.20
2022-08-26T10:45:29.801Z,97654.91
2022-08-26T10:48:07.545Z,97651.46
2022-08-26T10:50:41.772Z,97654.23
2022-08-26T10:53:39.878Z,97647.94
2022-08-26T10:56:44.812Z,97647.69
2022-08-26T11:00:31.413Z,97646.14
2022-08-26T11:03:39.313Z,97649.19
2022-08-26T11:06:19.991Z,97646.59
2022-08-26T11:08:48.017Z,97643.88
2022-08-26T11:11:40.891Z,97643.81
2022-08-26T11:14:11.530Z,97643.36
2022-08-26T11:16:45.318Z,97644.88
2022-08-26T11:19:56.807Z,97647.02
2022-08-26T11:22:33.382Z,97644.79
2022-08-26T11:25:09.450Z,97642.98
2022-08-26T11:27:40.281Z,97638.27
2022-08-26T11:30:10.822Z,97636.41
2022-08-26T11:32:41.294Z,97633.46
2022-08-26T11:35:19.431Z,97632.95
2022-08-26T11:38:04.407Z,97629.73
2022-08-26T11:40:38.564Z,97628.58
2022-08-26T11:43:13.007Z,97622.36
2022-08-26T11:45:47.597Z,97620.84
2022-08-26T11:48:31.215Z,97613.42
2022-08-26T11:51:12.491Z,97610.66
2022-08-26T11:53:47.178Z,97614.35
2022-08-26T11:56:28.823Z,97613.29
2022-08-26T11:59:03.558Z,97610.55
2022-08-26T12:01:35.772Z,97612.52
2022-08-26T12:04:10.716Z,97611.65
2022-08-26T12:06:45.898Z,97609.91
2022-08-26T12:09:30.533Z,97607.65
2022-08-26T12:12:22.088Z,97606.70
2022-08-26T12:15:06.369Z,97603.30
2022-08-26T12:17:34.532Z,97604.30
2022-08-26T12:20:17.075Z,97599.67
2022-08-26T12:22:48.096Z,97597.26
2022-08-26T12:25:24.036Z,97597.06
2022-08-26T12:27:54.068Z,97599.27
2022-08-26T12:30:26.266Z,97593.10
2022-08-26T12:33:22.186Z,97589.52
2022-08-26T12:35:56.325Z,97587.47
2022-08-26T12:38:27.464Z,97585.34
2022-08-26T12:40:57.170Z,97580.06
2022-08-26T12:43:44.704Z,97581.95
2022-08-26T12:46:30.044Z,97579.02
2022-08-26T12:49:01.572Z,97580.59
2022-08-26T12:51:33.043Z,97581.22
2022-08-26T12:54:06.812Z,97578.17
2022-08-26T12:56:41.407Z,97574.95
2022-08-26T12:59:24.434Z,97576.48
2022-08-26T13:01:54.216Z,97577.70
2022-08-26T13:04:31.318Z,97575.31
2022-08-26T13:07:18.356Z,97574.91
2022-08-26T13:09:46.372Z,97576.48
2022-08-26T13:12:28.272Z,97572.36
2022-08-26T13:14:58.939Z,97570.66
2022-08-26T13:17:29.289Z,97571.82
2022-08-26T13:20:03.230Z,97565.02
2022-08-26T13:22:32.906Z,97562.80
2022-08-26T13:25:01.116Z,97560.98
2022-08-26T13:27:29.250Z,97559.14
2022-08-26T13:29:58.007Z,97557.65
2022-08-26T13:32:27.306Z,97558.69
2022-08-26T13:34:59.736Z,97554.89
2022-08-26T13:37:31.504Z,97547.23
2022-08-26T13:40:07.690Z,97549.90
2022-08-26T13:42:35.837Z,97550.61
2022-08-26T13:45:04.845Z,97552.92
2022-08-26T13:47:32.900Z,97552.55
2022-08-26T13:50:01.033Z,97550.91
2022-08-26T13:52:30.565Z,97551.45
2022-08-26T13:55:00.679Z,97549.98
2022-08-26T13:57:30.341Z,97554.73
2022-08-26T14:00:01.917Z,97550.27
2022-08-26T14:02:37.916Z,97549.92
2022-08-26T14:05:06.513Z,97553.22
2022-08-26T14:07:34.601Z,97549.64
2022-08-26T14:10:03.140Z,97544.84
2022-08-26T14:12:31.333Z,97543.75
2022-08-26T14:15:00.585Z,97539.54
2022-08-26T14:17:28.733Z,97539.77
2022-08-26T14:19:59.015Z,97540.75
2022-08-26T14:22:27.965Z,97542.17
2022-08-26T14:24:56.655Z,97542.30
2022-08-26T14:27:25.652Z,97533.40
2022-08-26T14:29:54.493Z,97534.89
2022-08-26T14:32:27.411Z,97533.95
2022-08-26T14:34:56.196Z,97533.68
2022-08-26T14:37:24.419Z,97542.07
2022-08-26T14:39:52.677Z,97539.73
2022-08-26T14:42:26.593Z,97539.71
2022-08-26T14:45:02.914Z,97538.83
2022-08-26T14:47:31.365Z,97538.57
2022-08-26T14:49:59.359Z,97537.83
2022-08-26T14:52:27.929Z,97534.73
2022-08-26T14:54:55.980Z,97536.05
2022-08-26T14:57:24.209Z,97540.06
2022-08-26T14:59:52.362Z,97537.95
2022-08-26T15:02:32.626Z,97539.14
2022-08-26T15:05:04.281Z,97540.64
2022-08-26T15:07:32.336Z,97537.41
2022-08-26T15:10:00.800Z,97534.71
2022-08-26T15:12:28.975Z,97532.76
2022-08-26T15:14:57.273Z,97529.52
2022-08-26T15:17:26.467Z,97531.23
2022-08-26T15:19:54.565Z,97528.31
2022-08-26T15:22:23.052Z,97529.23
2022-08-26T15:24:51.758Z,97530.30
2022-08-26T15:27:21.871Z,97534.34
2022-08-26T15:29:50.621Z,97533.04
2022-08-26T15:32:18.829Z,97537.36
2022-08-26T15:34:47.420Z,97536.20
2022-08-26T15:37:17.075Z,97535.08
2022-08-26T15:39:45.232Z,97535.98
2022-08-26T15:42:13.382Z,97534.48
2022-08-26T15:44:45.647Z,97535.48
2022-08-26T15:47:14.680Z,97529.27
2022-08-26T15:49:44.868Z,97526.85
2022-08-26T15:52:15.712Z,97528.69
2022-08-26T15:54:43.835Z,97524.64
2022-08-26T15:57:14.361Z,97523.77
2022-08-26T15:59:43.453Z,97526.95
2022-08-26T16:02:11.686Z,97526.45
2022-08-26T16:04:39.852Z,97526.13
2022-08-26T16:07:07.929Z,97523.50
2022-08-26T16:09:36.180Z,97521.06
2022-08-26T16:12:04.377Z,97519.40
2022-08-26T16:14:32.590Z,97519.25
2022-08-26T16:17:00.804Z,97514.54
2022-08-26T16:19:29.419Z,97518.71
2022-08-26T16:21:58.014Z,97514.17
2022-08-26T16:24:30.220Z,97512.63
2022-08-26T16:26:58.827Z,97509.24
2022-08-26T16:29:27.879Z,97504.92
2022-08-26T16:31:55.902Z,97500.86
2022-08-26T16:34:24.318Z,97498.25
2022-08-26T16:36:52.831Z,97499.34
2022-08-26T16:39:20.993Z,97492.55
2022-08-26T16:41:48.952Z,97489.63
2022-08-26T16:44:17.065Z,97491.65
2022-08-26T16:46:45.922Z,97492.35
2022-08-26T16:49:14.441Z,97488.48
2022-08-26T16:51:42.414Z,97485.70
2022-08-26T16:54:10.680Z,97485.18
2022-08-26T16:56:39.303Z,97481.52
2022-08-26T16:59:11.778Z,97485.97
2022-08-26T17:01:40.036Z,97480.79
2022-08-26T17:04:08.057Z,97475.31
2022-08-26T17:06:36.389Z,97472.59
2022-08-26T17:09:05.272Z,97472.33
2022-08-26T17:11:34.327Z,97470.77
2022-08-26T17:14:03.091Z,97467.56
2022-08-26T17:16:32.052Z,97465.82
2022-08-26T17:19:00.452Z,97465.17
2022-08-26T17:21:29.222Z,97467.19
2022-08-26T17:23:57.250Z,97465.78
2022-08-26T17:26:26.095Z,97468.00
2022-08-26T17:28:54.499Z,97470.74
2022-08-26T17:31:23.518Z,97476.88
2022-08-26T17:33:53.508Z,97480.80
2022-08-26T17:36:27.923Z,97476.84
2022-08-26T17:38:58.432Z,97479.61
2022-08-26T17:41:26.995Z,97475.98
2022-08-26T17:43:55.281Z,97472.88
2022-08-26T17:46:24.186Z,97471.29
2022-08-26T17:48:52.290Z,97473.59
2022-08-26T17:51:22.128Z,97470.42
2022-08-26T17:53:52.027Z,97466.59
2022-08-26T17:56:27.247Z,97467.70
2022-08-26T17:59:02.525Z,97469.11
2022-08-26T18:01:32.762Z,97466.38
2022-08-26T18:04:01.149Z,97469.75
2022-08-26T18:06:30.781Z,97466.56
2022-08-26T18:09:00.321Z,97469.98
2022-08-26T18:11:29.311Z,97471.27
2022-08-26T18:13:57.323Z,97474.95
2022-08-26T18:16:25.377Z,97475.61
2022-08-26T18:18:53.731Z,97474.77
2022-08-26T18:21:24.720Z,97473.48
2022-08-26T18:23:54.218Z,97476.94
2022-08-26T18:26:28.582Z,97483.25
2022-08-26T18:28:56.965Z,97484.52
2022-08-26T18:31:25.996Z,97485.95
2022-08-26T18:33:54.535Z,97484.54
2022-08-26T18:36:40.860Z,97481.96
2022-08-26T18:39:09.861Z,97485.04
2022-08-26T18:41:44.142Z,97486.46
2022-08-26T18:44:14.136Z,97483.96
2022-08-26T18:46:44.200Z,97485.70
2022-08-26T18:49:16.458Z,97485.09
2022-08-26T18:51:45.108Z,97483.97
2022-08-26T18:54:13.475Z,97486.01
2022-08-26T18:56:42.463Z,97486.95
2022-08-26T18:59:11.842Z,97487.36
2022-08-26T19:01:41.087Z,97481.39
2022-08-26T19:04:14.114Z,97478.17
2022-08-26T19:06:47.161Z,97476.21
2022-08-26T19:09:17.843Z,97477.64
2022-08-26T19:11:47.201Z,97475.42
2022-08-26T19:14:17.777Z,97477.40
2022-08-26T19:16:47.820Z,97478.19
2022-08-26T19:19:16.481Z,97477.80
2022-08-26T19:21:45.662Z,97476.45
2022-08-26T19:24:17.692Z,97473.94
2022-08-26T19:26:48.421Z,97476.92
2022-08-26T19:31:46.424Z,97480.77
2022-08-26T19:34:18.327Z,97480.21
2022-08-26T19:36:49.476Z,97475.19
2022-08-26T19:39:17.504Z,97482.58
2022-08-26T19:41:45.632Z,97485.62
2022-08-26T19:44:38.304Z,97488.21
2022-08-26T19:47:09.610Z,97488.90
2022-08-26T19:49:39.278Z,97491.86
2022-08-26T19:52:07.529Z,97496.88
2022-08-26T19:54:36.450Z,97499.87
2022-08-26T19:57:05.839Z,97502.94
2022-08-26T19:59:38.748Z,97505.05
2022-08-26T20:02:11.373Z,97506.08
2022-08-26T20:04:42.044Z,97509.45
2022-08-26T20:07:18.577Z,97511.16
2022-08-26T20:09:51.048Z,97512.96
2022-08-26T20:12:19.597Z,97513.50
2022-08-26T20:14:47.993Z,97514.83
2022-08-26T20:17:18.787Z,97509.04
2022-08-26T20:20:07.199Z,97511.77
2022-08-26T20:22:56.220Z,97517.18
2022-08-26T20:25:26.331Z,97519.05
2022-08-26T20:27:54.697Z,97516.29
2022-08-26T20:30:26.386Z,97516.13
2022-08-26T20:33:01.053Z,97517.45
2022-08-26T20:35:29.617Z,97522.20
2022-08-26T20:37:58.004Z,97519.96
2022-08-26T20:40:26.546Z,97517.82
2022-08-26T20:42:55.251Z,97519.13
2022-08-26T20:45:24.077Z,97518.16
2022-08-26T20:47:53.000Z,97517.48
2022-08-26T20:50:21.347Z,97520.18
2022-08-26T20:52:49.883Z,97527.85
2022-08-26T20:55:19.088Z,97527.05
2022-08-26T20:57:49.992Z,97526.24
2022-08-26T21:00:26.494Z,97527.72
2022-08-26T21:02:56.941Z,97526.83
2022-08-26T21:05:25.191Z,97524.69
2022-08-26T21:07:53.702Z,97523.09
2022-08-26T21:10:22.611Z,97522.52
2022-08-26T21:12:51.836Z,97525.17
2022-08-26T21:15:19.949Z,97519.83
2022-08-26T21:17:48.679Z,97520.80
2022-08-26T21:20:18.932Z,97518.27
2022-08-26T21:22:47.426Z,97516.97
2022-08-26T21:25:15.752Z,97518.08
2022-08-26T21:27:43.957Z,97514.23
2022-08-26T21:30:15.053Z,97494.84
2022-08-26T21:32:43.595Z,97512.13
2022-08-26T21:35:11.670Z,97507.59
2022-08-26T21:37:39.938Z,97505.36
2022-08-26T21:40:10.544Z,97505.38
2022-08-26T21:42:38.903Z,97502.91
2022-08-26T21:45:07.589Z,97502.79
2022-08-26T21:47:36.697Z,97505.77
2022-08-26T21:50:05.743Z,97504.80
2022-08-26T21:52:33.774Z,97508.67
2022-08-26T21:55:03.536Z,97503.86
2022-08-26T21:57:37.157Z,97502.17
2022-08-26T22:00:09.296Z,97502.35
2022-08-26T22:02:37.591Z,97501.54
2022-08-26T22:05:05.982Z,97501.80
2022-08-26T22:07:34.369Z,97505.61
2022-08-26T22:10:02.443Z,97509.04
2022-08-26T22:12:30.451Z,97506.53
2022-08-26T22:14:58.879Z,97509.64
2022-08-26T22:17:29.419Z,97508.21
2022-08-26T22:19:57.464Z,97512.02
2022-08-26T22:22:31.885Z,97511.71
2022-08-26T22:25:00.379Z,97511.69
2022-08-26T22:27:29.712Z,97511.76
2022-08-26T22:29:57.937Z,97507.09
2022-08-26T22:32:25.828Z,97505.27
2022-08-26T22:34:53.890Z,97504.23
2022-08-26T22:37:21.884Z,97502.46
2022-08-26T22:39:51.942Z,97501.15
2022-08-26T22:42:20.026Z,97500.18
2022-08-26T22:44:51.370Z,97499.73
2022-08-26T22:47:19.376Z,97501.60
2022-08-26T22:49:47.969Z,97501.20
2022-08-26T22:52:16.006Z,97498.35
2022-08-26T22:54:43.998Z,97496.39
2022-08-26T22:57:12.067Z,97491.02
2022-08-26T22:59:40.725Z,97490.54
2022-08-26T23:02:16.153Z,97486.30
2022-08-26T23:04:44.075Z,97483.48
2022-08-26T23:07:14.486Z,97479.78
2022-08-26T23:09:42.738Z,97478.05
2022-08-26T23:12:13.273Z,97475.38
2022-08-26T23:14:41.763Z,97470.88
2022-08-26T23:17:15.887Z,97470.00
2022-08-26T23:19:45.199Z,97471.51
2022-08-26T23:22:13.288Z,97472.69
2022-08-26T23:24:41.629Z,97471.03
2022-08-26T23:27:10.177Z,97469.14
2022-08-26T23:29:39.912Z,97464.32
2022-08-26T23:32:08.072Z,97453.13
2022-08-26T23:34:54.757Z,97446.60
2022-08-26T23:37:32.454Z,97439.77
2022-08-26T23:40:05.278Z,97438.09
2022-08-26T23:42:34.717Z,97441.14
2022-08-26T23:45:08.139Z,97443.98
2022-08-26T23:47:36.776Z,97444.89
2022-08-26T23:50:05.951Z,97447.33
2022-08-26T23:52:52.652Z,97448.95
2022-08-26T23:55:23.781Z,97446.52
2022-08-26T23:57:51.855Z,97447.49
